Kurganinsk, Russia
Current Conditions -  °F | °C
As of 2:30 PM on Wednesday 26 Nov 2014 (Local Time) from URMT Reporting Station
Overcast Overcast  
Wind Chill: 19°   Ceiling: 500
Heat Index: 30°   Visibility: 6mi
Dew Point: 28°   Wind: 16mph
Humidity: 93%   Direction: 120°ESE
Pressure: 30.09"   Gusts: 22mph
Location:  44.88°N, 40.6°E
Report Text: URMT 261130Z 12007G10MPS 9999 BKN005 OVC100 M01/M02 Q1019 NOSIGRMK QFE724 SC050
Loading
Personal Weather Stations






























Interactive Weather Map New forecast layout! Learn more

10-Day Weather Forecast

Advertisements
Track Severe Weather on mobile